sensor_id;sensor_type;location;lat;lon;timestamp;temperature;humidity
67799;SHT30;54596;43.216;27.904;2023-03-14T00:02:08;4.01;78.28
67799;SHT30;54596;43.216;27.904;2023-03-14T00:04:34;3.93;78.65
67799;SHT30;54596;43.216;27.904;2023-03-14T00:07:00;3.95;78.47
67799;SHT30;54596;43.216;27.904;2023-03-14T00:09:26;3.94;78.51
67799;SHT30;54596;43.216;27.904;2023-03-14T00:11:53;3.94;78.54
67799;SHT30;54596;43.216;27.904;2023-03-14T00:14:18;3.86;78.64
67799;SHT30;54596;43.216;27.904;2023-03-14T00:16:46;3.91;78.62
67799;SHT30;54596;43.216;27.904;2023-03-14T00:19:12;3.87;78.63
67799;SHT30;54596;43.216;27.904;2023-03-14T00:21:37;3.86;78.57
67799;SHT30;54596;43.216;27.904;2023-03-14T00:24:03;3.81;78.59
67799;SHT30;54596;43.216;27.904;2023-03-14T00:26:29;3.80;78.57
67799;SHT30;54596;43.216;27.904;2023-03-14T00:28:54;3.76;78.88
67799;SHT30;54596;43.216;27.904;2023-03-14T00:31:20;3.77;78.93
67799;SHT30;54596;43.216;27.904;2023-03-14T00:33:46;3.74;78.87
67799;SHT30;54596;43.216;27.904;2023-03-14T00:36:16;3.73;78.85
67799;SHT30;54596;43.216;27.904;2023-03-14T00:38:43;3.70;78.93
67799;SHT30;54596;43.216;27.904;2023-03-14T00:41:11;3.69;79.36
67799;SHT30;54596;43.216;27.904;2023-03-14T00:43:37;3.64;79.51
67799;SHT30;54596;43.216;27.904;2023-03-14T00:46:03;3.66;79.58
67799;SHT30;54596;43.216;27.904;2023-03-14T00:48:29;3.63;79.61
67799;SHT30;54596;43.216;27.904;2023-03-14T00:50:54;3.63;79.56
67799;SHT30;54596;43.216;27.904;2023-03-14T00:53:20;3.60;79.43
67799;SHT30;54596;43.216;27.904;2023-03-14T00:55:46;3.60;79.30
67799;SHT30;54596;43.216;27.904;2023-03-14T00:58:13;3.62;79.29
67799;SHT30;54596;43.216;27.904;2023-03-14T01:00:39;3.60;79.31
67799;SHT30;54596;43.216;27.904;2023-03-14T01:03:05;3.60;79.21
67799;SHT30;54596;43.216;27.904;2023-03-14T01:05:31;3.62;79.25
67799;SHT30;54596;43.216;27.904;2023-03-14T01:07:57;3.62;79.36
67799;SHT30;54596;43.216;27.904;2023-03-14T01:10:23;3.62;79.38
67799;SHT30;54596;43.216;27.904;2023-03-14T01:12:49;3.63;79.53
67799;SHT30;54596;43.216;27.904;2023-03-14T01:15:15;3.64;79.44
67799;SHT30;54596;43.216;27.904;2023-03-14T01:17:40;3.63;79.37
67799;SHT30;54596;43.216;27.904;2023-03-14T01:20:08;3.66;79.46
67799;SHT30;54596;43.216;27.904;2023-03-14T01:22:35;3.66;79.39
67799;SHT30;54596;43.216;27.904;2023-03-14T01:25:01;3.64;79.34
67799;SHT30;54596;43.216;27.904;2023-03-14T01:27:27;3.64;79.19
67799;SHT30;54596;43.216;27.904;2023-03-14T01:29:53;3.60;79.22
67799;SHT30;54596;43.216;27.904;2023-03-14T01:32:18;3.53;79.93
67799;SHT30;54596;43.216;27.904;2023-03-14T01:34:43;3.48;80.16
67799;SHT30;54596;43.216;27.904;2023-03-14T01:37:09;3.50;80.23
67799;SHT30;54596;43.216;27.904;2023-03-14T01:39:37;3.48;80.10
67799;SHT30;54596;43.216;27.904;2023-03-14T01:42:03;3.53;79.82
67799;SHT30;54596;43.216;27.904;2023-03-14T01:44:44;3.55;79.61
67799;SHT30;54596;43.216;27.904;2023-03-14T01:47:10;3.58;79.55
67799;SHT30;54596;43.216;27.904;2023-03-14T01:49:36;3.46;79.71
67799;SHT30;54596;43.216;27.904;2023-03-14T01:54:48;3.50;80.13
67799;SHT30;54596;43.216;27.904;2023-03-14T01:57:37;3.44;80.26
67799;SHT30;54596;43.216;27.904;2023-03-14T02:00:07;3.46;80.24
67799;SHT30;54596;43.216;27.904;2023-03-14T02:02:38;3.40;80.24
67799;SHT30;54596;43.216;27.904;2023-03-14T02:05:05;3.38;80.46
67799;SHT30;54596;43.216;27.904;2023-03-14T02:09:59;3.32;80.50
67799;SHT30;54596;43.216;27.904;2023-03-14T02:12:26;3.26;80.59
67799;SHT30;54596;43.216;27.904;2023-03-14T02:14:53;3.21;81.01
67799;SHT30;54596;43.216;27.904;2023-03-14T02:17:19;3.16;81.24
67799;SHT30;54596;43.216;27.904;2023-03-14T02:22:40;3.18;81.53
67799;SHT30;54596;43.216;27.904;2023-03-14T02:25:22;3.11;82.12
67799;SHT30;54596;43.216;27.904;2023-03-14T02:27:49;3.12;82.15
67799;SHT30;54596;43.216;27.904;2023-03-14T02:30:22;3.08;82.73
67799;SHT30;54596;43.216;27.904;2023-03-14T02:32:52;3.05;82.72
67799;SHT30;54596;43.216;27.904;2023-03-14T02:35:22;3.03;82.92
67799;SHT30;54596;43.216;27.904;2023-03-14T02:37:59;3.03;83.13
67799;SHT30;54596;43.216;27.904;2023-03-14T02:40:26;3.01;83.16
67799;SHT30;54596;43.216;27.904;2023-03-14T02:42:51;3.04;83.19
67799;SHT30;54596;43.216;27.904;2023-03-14T02:47:59;2.96;83.52
67799;SHT30;54596;43.216;27.904;2023-03-14T02:50:30;2.98;83.28
67799;SHT30;54596;43.216;27.904;2023-03-14T02:52:58;2.96;82.77
67799;SHT30;54596;43.216;27.904;2023-03-14T02:55:24;2.83;82.83
67799;SHT30;54596;43.216;27.904;2023-03-14T02:57:52;2.73;82.94
67799;SHT30;54596;43.216;27.904;2023-03-14T03:00:18;2.70;83.01
67799;SHT30;54596;43.216;27.904;2023-03-14T03:02:43;2.69;82.94
67799;SHT30;54596;43.216;27.904;2023-03-14T03:05:09;2.62;83.37
67799;SHT30;54596;43.216;27.904;2023-03-14T03:07:34;2.62;83.28
67799;SHT30;54596;43.216;27.904;2023-03-14T03:10:00;2.70;82.83
67799;SHT30;54596;43.216;27.904;2023-03-14T03:12:25;2.67;82.88
67799;SHT30;54596;43.216;27.904;2023-03-14T03:14:51;2.73;82.62
67799;SHT30;54596;43.216;27.904;2023-03-14T03:17:17;2.73;82.64
67799;SHT30;54596;43.216;27.904;2023-03-14T03:19:43;2.75;82.64
67799;SHT30;54596;43.216;27.904;2023-03-14T03:22:08;2.70;82.50
67799;SHT30;54596;43.216;27.904;2023-03-14T03:24:34;2.75;82.38
67799;SHT30;54596;43.216;27.904;2023-03-14T03:26:59;2.73;82.50
67799;SHT30;54596;43.216;27.904;2023-03-14T03:29:25;2.73;82.41
67799;SHT30;54596;43.216;27.904;2023-03-14T03:31:50;2.70;82.35
67799;SHT30;54596;43.216;27.904;2023-03-14T03:34:16;2.63;82.58
67799;SHT30;54596;43.216;27.904;2023-03-14T03:36:41;2.64;82.52
67799;SHT30;54596;43.216;27.904;2023-03-14T03:39:07;2.63;82.74
67799;SHT30;54596;43.216;27.904;2023-03-14T03:41:33;2.62;82.80
67799;SHT30;54596;43.216;27.904;2023-03-14T03:43:58;2.64;82.70
67799;SHT30;54596;43.216;27.904;2023-03-14T03:46:24;2.62;82.73
67799;SHT30;54596;43.216;27.904;2023-03-14T03:48:57;2.67;82.58
67799;SHT30;54596;43.216;27.904;2023-03-14T03:51:23;2.64;82.58
67799;SHT30;54596;43.216;27.904;2023-03-14T03:53:48;2.63;82.61
67799;SHT30;54596;43.216;27.904;2023-03-14T03:56:14;2.60;82.66
67799;SHT30;54596;43.216;27.904;2023-03-14T03:58:39;2.55;82.99
67799;SHT30;54596;43.216;27.904;2023-03-14T04:01:08;2.52;82.98
67799;SHT30;54596;43.216;27.904;2023-03-14T04:03:34;2.52;82.94
67799;SHT30;54596;43.216;27.904;2023-03-14T04:06:04;2.42;83.12
67799;SHT30;54596;43.216;27.904;2023-03-14T04:08:30;2.49;82.70
67799;SHT30;54596;43.216;27.904;2023-03-14T04:10:57;2.44;82.62
67799;SHT30;54596;43.216;27.904;2023-03-14T04:13:23;2.48;82.54
67799;SHT30;54596;43.216;27.904;2023-03-14T04:15:49;2.46;82.99
67799;SHT30;54596;43.216;27.904;2023-03-14T04:18:17;2.52;82.73
67799;SHT30;54596;43.216;27.904;2023-03-14T04:20:44;2.49;82.67
67799;SHT30;54596;43.216;27.904;2023-03-14T04:23:11;2.56;82.51
67799;SHT30;54596;43.216;27.904;2023-03-14T04:25:38;2.57;82.73
67799;SHT30;54596;43.216;27.904;2023-03-14T04:28:05;2.62;82.36
67799;SHT30;54596;43.216;27.904;2023-03-14T04:30:30;2.57;82.51
67799;SHT30;54596;43.216;27.904;2023-03-14T04:32:56;2.56;82.61
67799;SHT30;54596;43.216;27.904;2023-03-14T04:35:24;2.62;82.60
67799;SHT30;54596;43.216;27.904;2023-03-14T04:37:49;2.60;82.73
67799;SHT30;54596;43.216;27.904;2023-03-14T04:40:18;2.59;83.02
67799;SHT30;54596;43.216;27.904;2023-03-14T04:42:44;2.59;82.86
67799;SHT30;54596;43.216;27.904;2023-03-14T04:45:13;2.62;82.42
67799;SHT30;54596;43.216;27.904;2023-03-14T04:47:39;2.56;82.70
67799;SHT30;54596;43.216;27.904;2023-03-14T04:50:06;2.67;82.29
67799;SHT30;54596;43.216;27.904;2023-03-14T04:52:32;2.70;82.29
67799;SHT30;54596;43.216;27.904;2023-03-14T04:54:57;2.75;82.22
67799;SHT30;54596;43.216;27.904;2023-03-14T04:57:23;2.79;81.97
67799;SHT30;54596;43.216;27.904;2023-03-14T04:59:48;2.77;81.94
67799;SHT30;54596;43.216;27.904;2023-03-14T05:02:13;2.79;82.04
67799;SHT30;54596;43.216;27.904;2023-03-14T05:04:39;2.81;81.82
67799;SHT30;54596;43.216;27.904;2023-03-14T05:07:05;2.83;81.90
67799;SHT30;54596;43.216;27.904;2023-03-14T05:09:30;2.84;82.18
67799;SHT30;54596;43.216;27.904;2023-03-14T05:11:56;2.90;81.82
67799;SHT30;54596;43.216;27.904;2023-03-14T05:14:24;2.93;81.84
67799;SHT30;54596;43.216;27.904;2023-03-14T05:16:50;2.97;81.85
67799;SHT30;54596;43.216;27.904;2023-03-14T05:19:16;2.98;81.75
67799;SHT30;54596;43.216;27.904;2023-03-14T05:21:41;3.05;81.61
67799;SHT30;54596;43.216;27.904;2023-03-14T05:24:07;3.01;81.88
67799;SHT30;54596;43.216;27.904;2023-03-14T05:26:32;3.05;82.00
67799;SHT30;54596;43.216;27.904;2023-03-14T05:28:59;3.11;81.92
67799;SHT30;54596;43.216;27.904;2023-03-14T05:31:25;3.15;81.79
67799;SHT30;54596;43.216;27.904;2023-03-14T05:33:50;3.16;81.59
67799;SHT30;54596;43.216;27.904;2023-03-14T05:36:16;3.25;81.58
67799;SHT30;54596;43.216;27.904;2023-03-14T05:38:41;3.32;81.55
67799;SHT30;54596;43.216;27.904;2023-03-14T05:41:07;3.33;81.70
67799;SHT30;54596;43.216;27.904;2023-03-14T05:43:33;3.38;81.62
67799;SHT30;54596;43.216;27.904;2023-03-14T05:45:58;3.50;81.32
67799;SHT30;54596;43.216;27.904;2023-03-14T05:48:24;3.63;81.05
67799;SHT30;54596;43.216;27.904;2023-03-14T05:50:55;3.76;81.37
67799;SHT30;54596;43.216;27.904;2023-03-14T05:53:20;3.98;80.88
67799;SHT30;54596;43.216;27.904;2023-03-14T05:55:46;4.46;79.90
67799;SHT30;54596;43.216;27.904;2023-03-14T05:58:11;6.23;75.74
67799;SHT30;54596;43.216;27.904;2023-03-14T06:00:37;8.45;69.18
67799;SHT30;54596;43.216;27.904;2023-03-14T06:03:02;10.31;63.26
67799;SHT30;54596;43.216;27.904;2023-03-14T06:05:28;11.32;60.29
67799;SHT30;54596;43.216;27.904;2023-03-14T06:07:53;12.49;56.81
67799;SHT30;54596;43.216;27.904;2023-03-14T06:10:19;13.76;53.50
67799;SHT30;54596;43.216;27.904;2023-03-14T06:12:44;14.49;51.88
67799;SHT30;54596;43.216;27.904;2023-03-14T06:15:11;15.16;50.33
67799;SHT30;54596;43.216;27.904;2023-03-14T06:17:37;15.32;49.75
67799;SHT30;54596;43.216;27.904;2023-03-14T06:20:03;15.64;49.32
67799;SHT30;54596;43.216;27.904;2023-03-14T06:22:28;16.45;47.99
67799;SHT30;54596;43.216;27.904;2023-03-14T06:24:54;17.19;46.33
67799;SHT30;54596;43.216;27.904;2023-03-14T06:27:19;18.13;44.66
67799;SHT30;54596;43.216;27.904;2023-03-14T06:29:45;18.33;43.81
67799;SHT30;54596;43.216;27.904;2023-03-14T06:32:10;18.74;43.80
67799;SHT30;54596;43.216;27.904;2023-03-14T06:34:36;19.03;43.17
67799;SHT30;54596;43.216;27.904;2023-03-14T06:37:02;19.50;42.67
67799;SHT30;54596;43.216;27.904;2023-03-14T06:39:27;19.38;42.43
67799;SHT30;54596;43.216;27.904;2023-03-14T06:41:52;19.98;42.31
67799;SHT30;54596;43.216;27.904;2023-03-14T06:44:18;19.61;42.01
67799;SHT30;54596;43.216;27.904;2023-03-14T06:46:43;20.22;41.72
67799;SHT30;54596;43.216;27.904;2023-03-14T06:49:09;20.52;41.16
67799;SHT30;54596;43.216;27.904;2023-03-14T06:51:36;20.50;41.04
67799;SHT30;54596;43.216;27.904;2023-03-14T06:54:01;19.83;42.41
67799;SHT30;54596;43.216;27.904;2023-03-14T06:56:27;20.95;40.76
67799;SHT30;54596;43.216;27.904;2023-03-14T06:58:52;21.31;39.53
67799;SHT30;54596;43.216;27.904;2023-03-14T07:01:25;21.68;39.65
67799;SHT30;54596;43.216;27.904;2023-03-14T07:03:50;21.54;39.95
67799;SHT30;54596;43.216;27.904;2023-03-14T07:06:16;21.41;40.60
67799;SHT30;54596;43.216;27.904;2023-03-14T07:08:41;22.45;38.87
67799;SHT30;54596;43.216;27.904;2023-03-14T07:11:07;22.13;39.01
67799;SHT30;54596;43.216;27.904;2023-03-14T07:13:33;22.50;38.74
67799;SHT30;54596;43.216;27.904;2023-03-14T07:15:58;21.91;39.27
67799;SHT30;54596;43.216;27.904;2023-03-14T07:18:24;20.51;41.34
67799;SHT30;54596;43.216;27.904;2023-03-14T07:20:49;19.29;43.26
67799;SHT30;54596;43.216;27.904;2023-03-14T07:23:15;19.36;43.35
67799;SHT30;54596;43.216;27.904;2023-03-14T07:25:40;20.16;42.22
67799;SHT30;54596;43.216;27.904;2023-03-14T07:28:06;21.06;41.22
67799;SHT30;54596;43.216;27.904;2023-03-14T07:30:31;20.82;39.75
67799;SHT30;54596;43.216;27.904;2023-03-14T07:33:00;20.67;41.32
67799;SHT30;54596;43.216;27.904;2023-03-14T07:35:25;19.71;42.99
67799;SHT30;54596;43.216;27.904;2023-03-14T07:37:51;19.47;43.14
67799;SHT30;54596;43.216;27.904;2023-03-14T07:40:16;20.39;42.08
67799;SHT30;54596;43.216;27.904;2023-03-14T07:42:42;20.68;41.48
67799;SHT30;54596;43.216;27.904;2023-03-14T07:45:09;21.00;41.17
67799;SHT30;54596;43.216;27.904;2023-03-14T07:47:35;20.47;41.64
67799;SHT30;54596;43.216;27.904;2023-03-14T07:50:01;19.50;43.08
67799;SHT30;54596;43.216;27.904;2023-03-14T07:52:26;18.95;44.57
67799;SHT30;54596;43.216;27.904;2023-03-14T07:54:52;19.67;43.51
67799;SHT30;54596;43.216;27.904;2023-03-14T07:57:17;19.49;43.79
67799;SHT30;54596;43.216;27.904;2023-03-14T07:59:43;19.82;43.20
67799;SHT30;54596;43.216;27.904;2023-03-14T08:02:10;19.79;43.34
67799;SHT30;54596;43.216;27.904;2023-03-14T08:04:37;20.20;42.77
67799;SHT30;54596;43.216;27.904;2023-03-14T08:07:03;19.92;43.21
67799;SHT30;54596;43.216;27.904;2023-03-14T08:09:28;20.74;41.73
67799;SHT30;54596;43.216;27.904;2023-03-14T08:11:54;20.98;41.09
67799;SHT30;54596;43.216;27.904;2023-03-14T08:14:20;20.22;42.16
67799;SHT30;54596;43.216;27.904;2023-03-14T08:16:45;20.20;42.08
67799;SHT30;54596;43.216;27.904;2023-03-14T08:19:11;19.92;42.71
67799;SHT30;54596;43.216;27.904;2023-03-14T08:21:36;20.55;42.57
67799;SHT30;54596;43.216;27.904;2023-03-14T08:24:02;20.78;41.70
67799;SHT30;54596;43.216;27.904;2023-03-14T08:26:28;19.53;44.05
67799;SHT30;54596;43.216;27.904;2023-03-14T08:28:53;18.83;44.71
67799;SHT30;54596;43.216;27.904;2023-03-14T08:31:19;18.89;44.92
67799;SHT30;54596;43.216;27.904;2023-03-14T08:33:44;19.50;44.46
67799;SHT30;54596;43.216;27.904;2023-03-14T08:36:10;18.72;45.47
67799;SHT30;54596;43.216;27.904;2023-03-14T08:38:36;18.69;45.66
67799;SHT30;54596;43.216;27.904;2023-03-14T08:41:02;17.95;46.34
67799;SHT30;54596;43.216;27.904;2023-03-14T08:43:29;18.94;45.57
67799;SHT30;54596;43.216;27.904;2023-03-14T08:45:58;17.08;48.58
67799;SHT30;54596;43.216;27.904;2023-03-14T08:48:23;16.23;50.01
67799;SHT30;54596;43.216;27.904;2023-03-14T08:50:49;15.63;51.51
67799;SHT30;54596;43.216;27.904;2023-03-14T08:53:14;15.76;51.86
67799;SHT30;54596;43.216;27.904;2023-03-14T08:55:40;15.04;53.18
67799;SHT30;54596;43.216;27.904;2023-03-14T08:58:05;14.79;53.89
67799;SHT30;54596;43.216;27.904;2023-03-14T09:00:31;13.80;55.33
67799;SHT30;54596;43.216;27.904;2023-03-14T09:02:56;13.48;56.75
67799;SHT30;54596;43.216;27.904;2023-03-14T09:05:22;12.98;58.14
67799;SHT30;54596;43.216;27.904;2023-03-14T09:07:47;12.69;59.25
67799;SHT30;54596;43.216;27.904;2023-03-14T09:10:13;12.83;60.07
67799;SHT30;54596;43.216;27.904;2023-03-14T09:12:38;12.76;60.10
67799;SHT30;54596;43.216;27.904;2023-03-14T09:15:04;12.34;60.52
67799;SHT30;54596;43.216;27.904;2023-03-14T09:17:30;11.65;62.46
67799;SHT30;54596;43.216;27.904;2023-03-14T09:19:55;11.34;63.32
67799;SHT30;54596;43.216;27.904;2023-03-14T09:22:21;11.45;63.32
67799;SHT30;54596;43.216;27.904;2023-03-14T09:24:46;11.18;64.24
67799;SHT30;54596;43.216;27.904;2023-03-14T09:27:12;11.06;64.52
67799;SHT30;54596;43.216;27.904;2023-03-14T09:29:38;11.11;64.41
67799;SHT30;54596;43.216;27.904;2023-03-14T09:32:03;11.07;64.94
67799;SHT30;54596;43.216;27.904;2023-03-14T09:34:29;10.67;65.41
67799;SHT30;54596;43.216;27.904;2023-03-14T09:36:55;10.55;66.19
67799;SHT30;54596;43.216;27.904;2023-03-14T09:39:20;10.42;66.88
67799;SHT30;54596;43.216;27.904;2023-03-14T09:41:51;10.39;67.83
67799;SHT30;54596;43.216;27.904;2023-03-14T09:44:27;10.39;67.43
67799;SHT30;54596;43.216;27.904;2023-03-14T09:46:55;10.17;67.59
67799;SHT30;54596;43.216;27.904;2023-03-14T09:49:33;9.90;68.02
67799;SHT30;54596;43.216;27.904;2023-03-14T09:52:07;9.68;69.30
67799;SHT30;54596;43.216;27.904;2023-03-14T09:54:45;9.76;69.07
67799;SHT30;54596;43.216;27.904;2023-03-14T09:57:18;9.97;68.94
67799;SHT30;54596;43.216;27.904;2023-03-14T09:59:48;9.94;68.83
67799;SHT30;54596;43.216;27.904;2023-03-14T10:02:27;9.97;68.75
67799;SHT30;54596;43.216;27.904;2023-03-14T10:04:54;9.83;69.24
67799;SHT30;54596;43.216;27.904;2023-03-14T10:07:30;9.59;69.73
67799;SHT30;54596;43.216;27.904;2023-03-14T10:09:57;9.51;70.22
67799;SHT30;54596;43.216;27.904;2023-03-14T10:12:33;9.61;69.96
67799;SHT30;54596;43.216;27.904;2023-03-14T10:15:05;9.65;70.15
67799;SHT30;54596;43.216;27.904;2023-03-14T10:17:41;9.61;68.86
67799;SHT30;54596;43.216;27.904;2023-03-14T10:25:41;9.28;70.91
67799;SHT30;54596;43.216;27.904;2023-03-14T10:28:37;9.38;70.75
67799;SHT30;54596;43.216;27.904;2023-03-14T10:31:03;9.55;70.30
67799;SHT30;54596;43.216;27.904;2023-03-14T10:33:35;9.36;70.88
67799;SHT30;54596;43.216;27.904;2023-03-14T10:36:23;9.28;70.41
67799;SHT30;54596;43.216;27.904;2023-03-14T10:38:58;9.42;71.07
67799;SHT30;54596;43.216;27.904;2023-03-14T10:41:25;9.28;71.21
67799;SHT30;54596;43.216;27.904;2023-03-14T10:43:54;9.28;70.34
67799;SHT30;54596;43.216;27.904;2023-03-14T10:46:23;9.42;69.92
67799;SHT30;54596;43.216;27.904;2023-03-14T10:48:49;9.41;70.30
67799;SHT30;54596;43.216;27.904;2023-03-14T10:56:15;9.56;68.91
67799;SHT30;54596;43.216;27.904;2023-03-14T10:58:52;9.65;69.05
67799;SHT30;54596;43.216;27.904;2023-03-14T11:07:05;9.44;69.17
67799;SHT30;54596;43.216;27.904;2023-03-14T11:09:42;9.36;68.64
67799;SHT30;54596;43.216;27.904;2023-03-14T11:12:33;9.45;69.60
67799;SHT30;54596;43.216;27.904;2023-03-14T11:15:15;9.28;69.19
67799;SHT30;54596;43.216;27.904;2023-03-14T11:20:42;9.51;69.02
67799;SHT30;54596;43.216;27.904;2023-03-14T11:23:21;9.62;68.73
67799;SHT30;54596;43.216;27.904;2023-03-14T11:28:40;9.34;69.31
67799;SHT30;54596;43.216;27.904;2023-03-14T11:31:32;9.21;68.51
67799;SHT30;54596;43.216;27.904;2023-03-14T11:34:22;9.38;70.63
67799;SHT30;54596;43.216;27.904;2023-03-14T11:39:19;9.16;68.41
67799;SHT30;54596;43.216;27.904;2023-03-14T11:41:52;9.23;68.75
67799;SHT30;54596;43.216;27.904;2023-03-14T11:44:22;9.14;66.14
67799;SHT30;54596;43.216;27.904;2023-03-14T11:50:03;9.13;67.43
67799;SHT30;54596;43.216;27.904;2023-03-14T11:52:38;8.96;66.90
67799;SHT30;54596;43.216;27.904;2023-03-14T11:55:18;9.18;66.12
67799;SHT30;54596;43.216;27.904;2023-03-14T11:57:44;9.25;67.05
67799;SHT30;54596;43.216;27.904;2023-03-14T12:00:17;9.27;66.76
67799;SHT30;54596;43.216;27.904;2023-03-14T12:08:21;9.24;69.25
67799;SHT30;54596;43.216;27.904;2023-03-14T12:10:58;9.20;65.74
67799;SHT30;54596;43.216;27.904;2023-03-14T12:13:29;9.20;69.93
67799;SHT30;54596;43.216;27.904;2023-03-14T12:15:57;9.32;69.40
67799;SHT30;54596;43.216;27.904;2023-03-14T12:18:28;9.14;67.93
67799;SHT30;54596;43.216;27.904;2023-03-14T12:20:57;9.20;67.30
67799;SHT30;54596;43.216;27.904;2023-03-14T12:23:24;9.24;67.66
67799;SHT30;54596;43.216;27.904;2023-03-14T12:28:41;9.08;67.67
67799;SHT30;54596;43.216;27.904;2023-03-14T12:31:43;8.92;69.53
67799;SHT30;54596;43.216;27.904;2023-03-14T12:44:44;8.69;72.95
67799;SHT30;54596;43.216;27.904;2023-03-14T12:49:41;8.79;72.72
67799;SHT30;54596;43.216;27.904;2023-03-14T12:52:14;8.61;73.30
67799;SHT30;54596;43.216;27.904;2023-03-14T12:54:49;8.66;73.94
67799;SHT30;54596;43.216;27.904;2023-03-14T12:59:59;8.61;74.60
67799;SHT30;54596;43.216;27.904;2023-03-14T13:02:29;8.41;74.53
67799;SHT30;54596;43.216;27.904;2023-03-14T13:05:05;8.36;75.19
67799;SHT30;54596;43.216;27.904;2023-03-14T13:10:23;8.48;74.98
67799;SHT30;54596;43.216;27.904;2023-03-14T13:15:33;8.45;75.73
67799;SHT30;54596;43.216;27.904;2023-03-14T13:18:03;8.58;75.21
67799;SHT30;54596;43.216;27.904;2023-03-14T13:20:35;8.55;75.62
67799;SHT30;54596;43.216;27.904;2023-03-14T13:23:02;8.56;74.88
67799;SHT30;54596;43.216;27.904;2023-03-14T13:25:35;8.45;76.03
67799;SHT30;54596;43.216;27.904;2023-03-14T13:28:02;8.37;76.63
67799;SHT30;54596;43.216;27.904;2023-03-14T13:30:38;8.40;76.61
67799;SHT30;54596;43.216;27.904;2023-03-14T13:33:05;8.47;76.17
67799;SHT30;54596;43.216;27.904;2023-03-14T13:35:46;8.51;75.79
67799;SHT30;54596;43.216;27.904;2023-03-14T13:38:21;8.37;76.51
67799;SHT30;54596;43.216;27.904;2023-03-14T13:40:47;8.38;77.11
67799;SHT30;54596;43.216;27.904;2023-03-14T13:45:50;8.27;76.80
67799;SHT30;54596;43.216;27.904;2023-03-14T13:48:16;8.19;76.94
67799;SHT30;54596;43.216;27.904;2023-03-14T13:53:26;8.21;77.38
67799;SHT30;54596;43.216;27.904;2023-03-14T13:55:52;8.20;77.28
67799;SHT30;54596;43.216;27.904;2023-03-14T13:58:27;8.20;76.71
67799;SHT30;54596;43.216;27.904;2023-03-14T14:00:59;8.21;77.18
67799;SHT30;54596;43.216;27.904;2023-03-14T14:03:26;8.27;76.67
67799;SHT30;54596;43.216;27.904;2023-03-14T14:05:55;8.21;77.48
67799;SHT30;54596;43.216;27.904;2023-03-14T14:08:20;8.26;77.41
67799;SHT30;54596;43.216;27.904;2023-03-14T14:10:47;8.26;77.64
67799;SHT30;54596;43.216;27.904;2023-03-14T14:13:16;8.27;77.30
67799;SHT30;54596;43.216;27.904;2023-03-14T14:15:46;8.40;77.16
67799;SHT30;54596;43.216;27.904;2023-03-14T14:18:16;8.41;77.32
67799;SHT30;54596;43.216;27.904;2023-03-14T14:20:44;8.37;77.56
67799;SHT30;54596;43.216;27.904;2023-03-14T14:25:40;8.28;78.08
67799;SHT30;54596;43.216;27.904;2023-03-14T14:28:30;8.37;78.10
67799;SHT30;54596;43.216;27.904;2023-03-14T14:33:41;8.33;77.80
67799;SHT30;54596;43.216;27.904;2023-03-14T14:36:20;8.34;77.86
67799;SHT30;54596;43.216;27.904;2023-03-14T14:38:51;8.19;78.52
67799;SHT30;54596;43.216;27.904;2023-03-14T14:41:16;8.17;78.29
67799;SHT30;54596;43.216;27.904;2023-03-14T14:43:42;8.27;78.33
67799;SHT30;54596;43.216;27.904;2023-03-14T14:46:09;8.17;78.33
67799;SHT30;54596;43.216;27.904;2023-03-14T14:48:38;8.11;78.72
67799;SHT30;54596;43.216;27.904;2023-03-14T14:51:08;8.04;79.07
67799;SHT30;54596;43.216;27.904;2023-03-14T14:53:41;7.92;79.73
67799;SHT30;54596;43.216;27.904;2023-03-14T14:56:19;7.93;79.61
67799;SHT30;54596;43.216;27.904;2023-03-14T14:58:48;8.03;79.30
67799;SHT30;54596;43.216;27.904;2023-03-14T15:01:23;8.02;79.29
67799;SHT30;54596;43.216;27.904;2023-03-14T15:03:52;8.07;79.24
67799;SHT30;54596;43.216;27.904;2023-03-14T15:06:19;7.97;79.49
67799;SHT30;54596;43.216;27.904;2023-03-14T15:08:48;7.96;79.73
67799;SHT30;54596;43.216;27.904;2023-03-14T15:11:20;7.92;79.67
67799;SHT30;54596;43.216;27.904;2023-03-14T15:13:48;7.89;80.01
67799;SHT30;54596;43.216;27.904;2023-03-14T15:16:18;7.90;80.00
67799;SHT30;54596;43.216;27.904;2023-03-14T15:18:50;7.81;80.00
67799;SHT30;54596;43.216;27.904;2023-03-14T15:21:17;7.82;79.99
67799;SHT30;54596;43.216;27.904;2023-03-14T15:23:43;7.87;79.99
67799;SHT30;54596;43.216;27.904;2023-03-14T15:26:15;7.87;80.17
67799;SHT30;54596;43.216;27.904;2023-03-14T15:28:41;7.86;80.43
67799;SHT30;54596;43.216;27.904;2023-03-14T15:31:09;7.85;80.72
67799;SHT30;54596;43.216;27.904;2023-03-14T15:33:35;7.89;81.57
67799;SHT30;54596;43.216;27.904;2023-03-14T15:36:00;7.87;80.04
67799;SHT30;54596;43.216;27.904;2023-03-14T15:38:26;7.83;80.07
67799;SHT30;54596;43.216;27.904;2023-03-14T15:40:52;7.75;80.26
67799;SHT30;54596;43.216;27.904;2023-03-14T15:43:18;7.72;79.96
67799;SHT30;54596;43.216;27.904;2023-03-14T15:45:44;7.74;80.14
67799;SHT30;54596;43.216;27.904;2023-03-14T15:48:16;7.75;80.04
67799;SHT30;54596;43.216;27.904;2023-03-14T15:50:43;7.71;80.28
67799;SHT30;54596;43.216;27.904;2023-03-14T15:53:08;7.64;80.65
67799;SHT30;54596;43.216;27.904;2023-03-14T15:55:34;7.61;80.65
67799;SHT30;54596;43.216;27.904;2023-03-14T15:57:59;7.71;80.41
67799;SHT30;54596;43.216;27.904;2023-03-14T16:00:27;7.59;80.71
67799;SHT30;54596;43.216;27.904;2023-03-14T16:02:53;7.58;80.67
67799;SHT30;54596;43.216;27.904;2023-03-14T16:05:19;7.48;80.81
67799;SHT30;54596;43.216;27.904;2023-03-14T16:10:54;7.40;81.36
67799;SHT30;54596;43.216;27.904;2023-03-14T16:13:19;7.37;81.36
67799;SHT30;54596;43.216;27.904;2023-03-14T16:15:58;7.37;81.57
67799;SHT30;54596;43.216;27.904;2023-03-14T16:18:24;7.43;81.12
67799;SHT30;54596;43.216;27.904;2023-03-14T16:20:54;7.30;81.37
67799;SHT30;54596;43.216;27.904;2023-03-14T16:23:20;7.24;81.48
67799;SHT30;54596;43.216;27.904;2023-03-14T16:25:46;7.30;81.71
67799;SHT30;54596;43.216;27.904;2023-03-14T16:28:11;7.27;81.66
67799;SHT30;54596;43.216;27.904;2023-03-14T16:30:37;7.30;81.89
67799;SHT30;54596;43.216;27.904;2023-03-14T16:33:02;7.26;81.77
67799;SHT30;54596;43.216;27.904;2023-03-14T16:35:32;7.20;81.83
67799;SHT30;54596;43.216;27.904;2023-03-14T16:37:59;7.23;82.04
67799;SHT30;54596;43.216;27.904;2023-03-14T16:40:25;7.19;82.08
67799;SHT30;54596;43.216;27.904;2023-03-14T16:42:51;7.20;82.14
67799;SHT30;54596;43.216;27.904;2023-03-14T16:45:18;7.14;82.15
67799;SHT30;54596;43.216;27.904;2023-03-14T16:47:43;7.16;82.11
67799;SHT30;54596;43.216;27.904;2023-03-14T16:50:09;7.20;82.34
67799;SHT30;54596;43.216;27.904;2023-03-14T16:52:34;7.20;82.61
67799;SHT30;54596;43.216;27.904;2023-03-14T16:55:00;7.24;82.26